createdAt,value
2023-04-13T00:00:02.014Z,0.00
2023-04-13T00:01:01.939Z,0.00
2023-04-13T00:02:02.103Z,0.00
2023-04-13T00:03:02.107Z,0.00
2023-04-13T00:04:02.093Z,0.00
2023-04-13T00:05:01.859Z,0.00
2023-04-13T00:06:01.786Z,0.00
2023-04-13T00:07:01.786Z,0.00
2023-04-13T00:08:01.730Z,0.00
2023-04-13T00:09:01.704Z,0.00
2023-04-13T00:10:01.682Z,0.00
2023-04-13T00:11:01.635Z,0.00
2023-04-13T00:12:01.605Z,0.00
2023-04-13T00:13:01.599Z,0.00
2023-04-13T00:14:01.584Z,0.00
2023-04-13T00:15:01.517Z,0.00
2023-04-13T00:16:01.497Z,0.00
2023-04-13T00:17:01.514Z,0.00
2023-04-13T00:18:01.452Z,0.00
2023-04-13T00:19:01.395Z,0.00
2023-04-13T00:20:01.391Z,0.00
2023-04-13T00:21:01.337Z,0.00
2023-04-13T00:22:01.304Z,0.00
2023-04-13T00:23:01.341Z,0.00
2023-04-13T00:24:01.243Z,0.00
2023-04-13T00:25:01.217Z,0.00
2023-04-13T00:26:01.182Z,0.00
2023-04-13T00:27:01.167Z,0.00
2023-04-13T00:28:01.128Z,0.00
2023-04-13T00:29:01.094Z,0.00
2023-04-13T00:30:01.074Z,0.00
2023-04-13T00:31:01.118Z,0.00
2023-04-13T00:32:01.004Z,0.00
2023-04-13T00:33:01.015Z,0.00
2023-04-13T00:34:00.946Z,0.00
2023-04-13T00:35:00.918Z,0.00
2023-04-13T00:36:00.883Z,0.00
2023-04-13T00:37:00.854Z,0.00
2023-04-13T00:38:00.820Z,0.00
2023-04-13T00:39:00.812Z,0.00
2023-04-13T00:40:00.766Z,0.00
2023-04-13T00:41:00.731Z,0.00
2023-04-13T00:42:00.699Z,0.00
2023-04-13T00:43:00.730Z,0.00
2023-04-13T00:44:00.666Z,0.00
2023-04-13T00:45:00.611Z,0.00
2023-04-13T00:46:00.609Z,0.00
2023-04-13T00:47:00.550Z,0.00
2023-04-13T00:48:00.697Z,0.00
2023-04-13T00:49:00.492Z,0.00
2023-04-13T00:50:00.459Z,0.00
2023-04-13T00:51:00.427Z,0.00
2023-04-13T00:52:00.399Z,0.00
2023-04-13T00:53:00.377Z,0.00
2023-04-13T00:54:00.419Z,0.00
2023-04-13T00:55:00.333Z,0.00
2023-04-13T00:56:00.276Z,0.00
2023-04-13T00:57:00.244Z,0.00
2023-04-13T00:58:00.212Z,0.00
2023-04-13T00:59:00.182Z,0.00
2023-04-13T01:00:00.250Z,0.00
2023-04-13T01:01:00.132Z,0.00
2023-04-13T01:02:00.258Z,0.00
2023-04-13T01:03:00.108Z,0.00
2023-04-13T01:04:00.413Z,0.00
2023-04-13T01:05:00.003Z,0.00
2023-04-13T01:06:00.001Z,0.00
2023-04-13T01:06:59.941Z,0.00
2023-04-13T01:07:59.914Z,0.00
2023-04-13T01:08:59.877Z,0.00
2023-04-13T01:09:59.849Z,0.00
2023-04-13T01:10:59.835Z,0.00
2023-04-13T01:11:59.783Z,0.00
2023-04-13T01:12:59.753Z,0.00
2023-04-13T01:13:59.897Z,0.00
2023-04-13T01:14:59.696Z,0.00
2023-04-13T01:15:59.721Z,0.00
2023-04-13T01:16:59.631Z,0.00
2023-04-13T01:17:59.675Z,0.00
2023-04-13T01:18:59.572Z,0.00
2023-04-13T01:19:59.544Z,0.00
2023-04-13T01:20:59.512Z,0.00
2023-04-13T01:21:59.478Z,0.00
2023-04-13T01:22:59.447Z,0.00
2023-04-13T01:23:59.627Z,0.00
2023-04-13T01:24:59.394Z,0.00
2023-04-13T01:25:59.361Z,0.00
2023-04-13T01:26:59.344Z,0.00
2023-04-13T01:27:59.312Z,0.00
2023-04-13T01:28:59.263Z,0.00
2023-04-13T01:29:59.232Z,0.00
2023-04-13T01:30:59.224Z,0.00
2023-04-13T01:31:59.172Z,0.00
2023-04-13T01:32:59.203Z,0.00
2023-04-13T01:33:59.320Z,0.00
2023-04-13T01:34:59.132Z,0.00
2023-04-13T01:35:59.049Z,0.00
2023-04-13T01:36:59.021Z,0.00
2023-04-13T01:37:58.993Z,0.00
2023-04-13T01:38:58.957Z,0.00
2023-04-13T01:39:58.926Z,0.00
2023-04-13T01:40:58.899Z,0.00
2023-04-13T01:41:58.871Z,0.00
2023-04-13T01:42:58.862Z,0.00
2023-04-13T01:43:59.089Z,0.00
2023-04-13T01:44:58.779Z,0.00
2023-04-13T01:45:58.744Z,0.00
2023-04-13T01:46:58.913Z,0.00
2023-04-13T01:47:58.740Z,0.00
2023-04-13T01:48:58.659Z,0.00
2023-04-13T01:49:58.622Z,0.00
2023-04-13T01:50:58.601Z,0.00
2023-04-13T01:51:58.574Z,0.00
2023-04-13T01:52:58.540Z,0.00
2023-04-13T01:53:58.703Z,0.00
2023-04-13T01:54:58.471Z,0.00
2023-04-13T01:55:58.439Z,0.00
2023-04-13T01:56:58.410Z,0.00
2023-04-13T01:57:58.379Z,0.00
2023-04-13T01:58:58.370Z,0.00
2023-04-13T01:59:58.317Z,0.00
2023-04-13T02:00:58.333Z,0.00
2023-04-13T02:01:58.276Z,0.00
2023-04-13T02:02:58.328Z,0.00
2023-04-13T02:03:58.714Z,0.00
2023-04-13T02:04:58.166Z,0.00
2023-04-13T02:05:58.134Z,0.00
2023-04-13T02:06:58.105Z,0.00
2023-04-13T02:07:58.074Z,0.00
2023-04-13T02:08:58.043Z,0.00
2023-04-13T02:09:58.012Z,0.00
2023-04-13T02:10:57.991Z,0.00
2023-04-13T02:11:57.954Z,0.00
2023-04-13T02:12:57.921Z,0.00
2023-04-13T02:13:58.367Z,0.00
2023-04-13T02:14:57.934Z,0.00
2023-04-13T02:15:57.874Z,0.00
2023-04-13T02:16:57.802Z,0.00
2023-04-13T02:17:57.867Z,0.00
2023-04-13T02:18:57.740Z,0.00
2023-04-13T02:19:57.716Z,0.00
2023-04-13T02:20:57.679Z,0.00
2023-04-13T02:21:57.647Z,0.00
2023-04-13T02:22:57.619Z,0.00
2023-04-13T02:23:57.930Z,0.00
2023-04-13T02:24:57.562Z,0.00
2023-04-13T02:25:57.534Z,0.00
2023-04-13T02:26:57.497Z,0.00
2023-04-13T02:27:57.469Z,0.00
2023-04-13T02:28:57.438Z,0.00
2023-04-13T02:29:57.402Z,0.00
2023-04-13T02:30:57.406Z,0.00
2023-04-13T02:31:57.379Z,0.00
2023-04-13T02:32:57.373Z,0.00
2023-04-13T02:33:57.716Z,0.00
2023-04-13T02:34:57.263Z,0.00
2023-04-13T02:35:57.228Z,0.00
2023-04-13T02:36:57.197Z,0.00
2023-04-13T02:37:57.159Z,0.00
2023-04-13T02:38:57.133Z,0.00
2023-04-13T02:39:57.117Z,0.00
2023-04-13T02:40:57.070Z,0.00
2023-04-13T02:41:57.040Z,0.00
2023-04-13T02:42:57.015Z,0.00
2023-04-13T02:43:57.514Z,0.00
2023-04-13T02:44:56.952Z,0.00
2023-04-13T02:45:56.962Z,0.00
2023-04-13T02:46:56.910Z,0.00
2023-04-13T02:47:56.940Z,0.00
2023-04-13T02:48:56.826Z,0.00
2023-04-13T02:49:56.794Z,0.00
2023-04-13T02:50:56.763Z,0.00
2023-04-13T02:51:56.737Z,0.00
2023-04-13T02:52:56.709Z,0.00
2023-04-13T02:53:58.142Z,0.00
2023-04-13T02:54:56.641Z,0.00
2023-04-13T02:55:56.613Z,0.00
2023-04-13T02:56:56.581Z,0.00
2023-04-13T02:57:56.556Z,0.00
2023-04-13T02:58:56.519Z,0.00
2023-04-13T02:59:56.507Z,0.00
2023-04-13T03:00:56.478Z,0.00
2023-04-13T03:01:56.445Z,0.00
2023-04-13T03:02:56.531Z,0.00
2023-04-13T03:03:56.618Z,0.00
2023-04-13T03:04:56.431Z,0.00
2023-04-13T03:05:56.312Z,0.00
2023-04-13T03:06:56.288Z,0.00
2023-04-13T03:07:56.251Z,0.00
2023-04-13T03:08:56.216Z,0.00
2023-04-13T03:09:56.195Z,0.00
2023-04-13T03:10:56.152Z,0.00
2023-04-13T03:11:56.130Z,0.00
2023-04-13T03:12:56.100Z,0.00
2023-04-13T03:13:56.153Z,0.00
2023-04-13T03:14:56.040Z,0.00
2023-04-13T03:15:56.005Z,0.00
2023-04-13T03:16:56.030Z,0.00
2023-04-13T03:17:55.997Z,0.00
2023-04-13T03:18:55.937Z,0.00
2023-04-13T03:19:55.882Z,0.00
2023-04-13T03:20:55.851Z,0.00
2023-04-13T03:21:55.822Z,0.00
2023-04-13T03:22:55.792Z,0.00
2023-04-13T03:23:55.867Z,0.00
2023-04-13T03:24:55.741Z,0.00
2023-04-13T03:25:55.704Z,0.00
2023-04-13T03:26:55.672Z,0.00
2023-04-13T03:27:55.645Z,0.00
2023-04-13T03:28:55.614Z,0.00
2023-04-13T03:29:55.583Z,0.00
2023-04-13T03:30:55.618Z,0.00
2023-04-13T03:31:55.520Z,0.00
2023-04-13T03:32:55.531Z,0.00
2023-04-13T03:33:55.460Z,0.00
2023-04-13T03:34:55.456Z,0.00
2023-04-13T03:35:55.403Z,0.00
2023-04-13T03:36:55.373Z,0.00
2023-04-13T03:37:55.342Z,0.00
2023-04-13T03:38:55.311Z,0.00
2023-04-13T03:39:55.281Z,0.00
2023-04-13T03:40:55.250Z,0.00
2023-04-13T03:41:55.231Z,0.00
2023-04-13T03:42:55.188Z,0.00
2023-04-13T03:44:55.133Z,0.00
2023-04-13T03:45:55.135Z,0.00
2023-04-13T03:46:55.072Z,0.00
2023-04-13T03:47:55.123Z,0.00
2023-04-13T03:48:55.014Z,0.00
2023-04-13T03:49:54.976Z,0.00
2023-04-13T03:50:54.982Z,0.00
2023-04-13T03:51:54.925Z,0.00
2023-04-13T03:52:54.892Z,0.00
2023-04-13T03:53:54.858Z,0.00
2023-04-13T03:54:54.861Z,0.00
2023-04-13T03:55:54.802Z,0.00
2023-04-13T03:56:54.765Z,0.00
2023-04-13T03:57:54.732Z,0.00
2023-04-13T03:58:54.704Z,0.00
2023-04-13T03:59:54.673Z,0.00
2023-04-13T04:00:54.644Z,0.00
2023-04-13T04:01:54.628Z,0.00
2023-04-13T04:02:54.787Z,0.00
2023-04-13T04:03:54.669Z,0.00
2023-04-13T04:04:54.578Z,0.00
2023-04-13T04:05:54.493Z,0.00
2023-04-13T04:06:54.488Z,4.00
2023-04-13T04:07:54.430Z,0.00
2023-04-13T04:08:54.417Z,4.00
2023-04-13T04:09:54.382Z,4.00
2023-04-13T04:10:54.340Z,4.00
2023-04-13T04:11:54.309Z,4.00
2023-04-13T04:12:54.277Z,4.00
2023-04-13T04:13:54.254Z,4.00
2023-04-13T04:14:54.223Z,0.00
2023-04-13T04:15:54.213Z,4.00
2023-04-13T04:16:54.162Z,4.00
2023-04-13T04:17:54.169Z,4.00
2023-04-13T04:18:54.097Z,4.00
2023-04-13T04:19:54.076Z,8.00
2023-04-13T04:20:54.032Z,8.00
2023-04-13T04:21:54.000Z,8.00
2023-04-13T04:22:54.001Z,8.00
2023-04-13T04:23:53.939Z,12.00
2023-04-13T04:24:53.909Z,12.00
2023-04-13T04:25:53.883Z,16.00
2023-04-13T04:26:53.848Z,16.00
2023-04-13T04:27:53.818Z,24.00
2023-04-13T04:28:53.783Z,28.00
2023-04-13T04:29:53.754Z,32.00
2023-04-13T04:30:53.725Z,32.00
2023-04-13T04:31:54.118Z,40.00
2023-04-13T04:32:53.710Z,48.00
2023-04-13T04:33:53.635Z,52.00
2023-04-13T04:34:53.608Z,60.00
2023-04-13T04:35:53.603Z,72.00
2023-04-13T04:36:53.542Z,80.00
2023-04-13T04:37:53.506Z,88.00
2023-04-13T04:38:53.547Z,100.00
2023-04-13T04:39:53.472Z,112.00
2023-04-13T04:40:53.417Z,128.00
2023-04-13T04:41:53.396Z,140.00
2023-04-13T04:42:53.357Z,156.00
2023-04-13T04:43:53.326Z,172.00
2023-04-13T04:44:53.295Z,188.00
2023-04-13T04:45:53.298Z,204.00
2023-04-13T04:46:53.230Z,212.00
2023-04-13T04:47:53.306Z,224.00
2023-04-13T04:48:53.176Z,228.00
2023-04-13T04:49:53.140Z,232.00
2023-04-13T04:50:53.113Z,236.00
2023-04-13T04:51:53.088Z,248.00
2023-04-13T04:52:53.047Z,256.00
2023-04-13T04:53:53.041Z,256.00
2023-04-13T04:54:53.011Z,252.00
2023-04-13T04:55:52.969Z,240.00
2023-04-13T04:56:52.930Z,236.00
2023-04-13T04:57:52.894Z,228.00
2023-04-13T04:58:52.878Z,224.00
2023-04-13T04:59:52.834Z,228.00
2023-04-13T05:00:52.899Z,232.00
2023-04-13T05:01:52.839Z,232.00
2023-04-13T05:02:52.895Z,240.00
2023-04-13T05:03:52.716Z,260.00
2023-04-13T05:04:52.730Z,284.00
2023-04-13T05:05:52.656Z,300.00
2023-04-13T05:06:52.622Z,320.00
2023-04-13T05:07:52.593Z,340.00
2023-04-13T05:08:52.561Z,368.00
2023-04-13T05:09:52.531Z,384.00
2023-04-13T05:10:52.519Z,396.00
2023-04-13T05:11:52.477Z,408.00
2023-04-13T05:12:52.440Z,420.00
2023-04-13T05:13:52.409Z,420.00
2023-04-13T05:14:52.380Z,416.00
2023-04-13T05:15:52.362Z,440.00
2023-04-13T05:16:52.322Z,476.00
2023-04-13T05:17:52.309Z,492.00
2023-04-13T05:18:52.257Z,504.00
2023-04-13T05:19:52.227Z,492.00
2023-04-13T05:20:52.199Z,480.00
2023-04-13T05:21:52.167Z,480.00
2023-04-13T05:22:52.137Z,472.00
2023-04-13T05:23:52.127Z,476.00
2023-04-13T05:24:52.086Z,476.00
2023-04-13T05:25:52.044Z,488.00
2023-04-13T05:26:52.089Z,496.00
2023-04-13T05:27:52.006Z,508.00
2023-04-13T05:28:51.958Z,504.00
2023-04-13T05:29:51.924Z,500.00
2023-04-13T05:30:51.896Z,468.00
2023-04-13T05:31:51.928Z,468.00
2023-04-13T05:32:51.937Z,496.00
2023-04-13T05:33:51.801Z,516.00
2023-04-13T05:34:51.771Z,544.00
2023-04-13T05:35:51.742Z,580.00
2023-04-13T05:36:51.711Z,608.00
2023-04-13T05:37:51.682Z,608.00
2023-04-13T05:38:51.697Z,652.00
2023-04-13T05:39:51.625Z,684.00
2023-04-13T05:40:51.588Z,740.00
2023-04-13T05:41:51.560Z,792.00
2023-04-13T05:42:51.560Z,820.00
2023-04-13T05:43:51.498Z,852.00
2023-04-13T05:44:51.467Z,924.00
2023-04-13T05:45:51.555Z,988.00
2023-04-13T05:46:51.408Z,1028.00
2023-04-13T05:47:51.395Z,1056.00
2023-04-13T05:48:51.358Z,1112.00
2023-04-13T05:49:51.311Z,1164.00
2023-04-13T05:50:51.283Z,1168.00
2023-04-13T05:51:51.251Z,1152.00
2023-04-13T05:52:51.224Z,1172.00
2023-04-13T05:53:51.190Z,1192.00
2023-04-13T05:54:51.161Z,1220.00
2023-04-13T05:55:51.131Z,1236.00
2023-04-13T05:56:51.097Z,1244.00
2023-04-13T05:57:51.065Z,1236.00
2023-04-13T05:58:51.055Z,1216.00
2023-04-13T05:59:51.038Z,1224.00
2023-04-13T06:00:50.977Z,1244.00
2023-04-13T06:01:52.203Z,1200.00
2023-04-13T06:02:51.065Z,1176.00
2023-04-13T06:03:51.028Z,1200.00
2023-04-13T06:04:50.936Z,1260.00
2023-04-13T06:05:50.819Z,1324.00
2023-04-13T06:06:50.789Z,1444.00
2023-04-13T06:07:50.758Z,1636.00
2023-04-13T06:08:50.729Z,1796.00
2023-04-13T06:09:50.698Z,1976.00
2023-04-13T06:10:50.668Z,2148.00
2023-04-13T06:11:50.639Z,2240.00
2023-04-13T06:12:50.610Z,2372.00
2023-04-13T06:13:50.573Z,2556.00
2023-04-13T06:14:50.566Z,2588.00
2023-04-13T06:15:50.513Z,2752.00
2023-04-13T06:16:50.511Z,2844.00
2023-04-13T06:17:50.485Z,3048.00
2023-04-13T06:18:50.421Z,3252.00
2023-04-13T06:19:50.395Z,3552.00
2023-04-13T06:20:50.365Z,3652.00
2023-04-13T06:21:50.329Z,3804.00
2023-04-13T06:22:50.306Z,4040.00
2023-04-13T06:23:50.280Z,3908.00
2023-04-13T06:24:50.246Z,3540.00
2023-04-13T06:25:50.208Z,3448.00
2023-04-13T06:26:50.182Z,3360.00
2023-04-13T06:27:50.387Z,3668.00
2023-04-13T06:28:50.136Z,3832.00
2023-04-13T06:29:50.095Z,4184.00
2023-04-13T06:30:50.121Z,4180.00
2023-04-13T06:31:50.038Z,3984.00
2023-04-13T06:32:50.043Z,4020.00
2023-04-13T06:33:49.969Z,3972.00
2023-04-13T06:34:49.939Z,3864.00
2023-04-13T06:35:49.906Z,4044.00
2023-04-13T06:36:49.897Z,4272.00
2023-04-13T06:37:49.845Z,4300.00
2023-04-13T06:38:49.819Z,4608.00
2023-04-13T06:39:49.811Z,4100.00
2023-04-13T06:40:49.765Z,4044.00
2023-04-13T06:41:49.726Z,4580.00
2023-04-13T06:42:49.706Z,4288.00
2023-04-13T06:43:49.665Z,4056.00
2023-04-13T06:44:49.666Z,3964.00
2023-04-13T06:45:49.677Z,4112.00
2023-04-13T06:46:49.703Z,4524.00
2023-04-13T06:47:49.556Z,4572.00
2023-04-13T06:48:49.518Z,4596.00
2023-04-13T06:49:49.491Z,4560.00
2023-04-13T06:50:49.459Z,4500.00
2023-04-13T06:51:49.429Z,4680.00
2023-04-13T06:52:49.410Z,4724.00
2023-04-13T06:53:49.367Z,4668.00
2023-04-13T06:54:49.339Z,4824.00
2023-04-13T06:55:49.331Z,4532.00
2023-04-13T06:56:49.279Z,4392.00
2023-04-13T06:57:49.255Z,4680.00
2023-04-13T06:58:49.223Z,5132.00
2023-04-13T06:59:49.213Z,5416.00
2023-04-13T07:00:49.211Z,5708.00
2023-04-13T07:01:49.264Z,5908.00
2023-04-13T07:02:49.388Z,5744.00
2023-04-13T07:03:49.240Z,5740.00
2023-04-13T07:04:49.087Z,5672.00
2023-04-13T07:05:49.017Z,5520.00
2023-04-13T07:06:48.984Z,5696.00
2023-04-13T07:07:48.973Z,5492.00
2023-04-13T07:08:48.940Z,5632.00
2023-04-13T07:09:48.916Z,5780.00
2023-04-13T07:10:48.865Z,5668.00
2023-04-13T07:11:48.854Z,5392.00
2023-04-13T07:12:48.809Z,5188.00
2023-04-13T07:13:48.780Z,5284.00
2023-04-13T07:14:48.747Z,5432.00
2023-04-13T07:15:48.761Z,5500.00
2023-04-13T07:16:48.698Z,5616.00
2023-04-13T07:17:48.686Z,6280.00
2023-04-13T07:18:48.655Z,6308.00
2023-04-13T07:19:48.600Z,6220.00
2023-04-13T07:20:48.569Z,6460.00
2023-04-13T07:21:48.539Z,6900.00
2023-04-13T07:22:48.510Z,6988.00
2023-04-13T07:23:48.479Z,7276.00
2023-04-13T07:24:48.450Z,7524.00
2023-04-13T07:25:48.421Z,7688.00
2023-04-13T07:26:48.387Z,7896.00
2023-04-13T07:27:48.367Z,8028.00
2023-04-13T07:28:48.335Z,8084.00
2023-04-13T07:29:48.314Z,8012.00
2023-04-13T07:30:48.273Z,8092.00
2023-04-13T07:31:48.326Z,8432.00
2023-04-13T07:32:48.295Z,8264.00
2023-04-13T07:33:48.186Z,8336.00
2023-04-13T07:34:48.176Z,8520.00
2023-04-13T07:35:48.127Z,8500.00
2023-04-13T07:36:48.095Z,8524.00
2023-04-13T07:37:48.343Z,8556.00
2023-04-13T07:38:48.037Z,8516.00
2023-04-13T07:39:48.005Z,8464.00
2023-04-13T07:40:47.985Z,8420.00
2023-04-13T07:41:47.956Z,8440.00
2023-04-13T07:42:47.917Z,8492.00
2023-04-13T07:43:47.890Z,8472.00
2023-04-13T07:44:47.866Z,8504.00
2023-04-13T07:45:47.831Z,8568.00
2023-04-13T07:46:47.887Z,8632.00
2023-04-13T07:47:47.825Z,8656.00
2023-04-13T07:48:47.756Z,8764.00
2023-04-13T07:49:47.715Z,8924.00
2023-04-13T07:50:47.700Z,9132.00
2023-04-13T07:51:47.654Z,9144.00
2023-04-13T07:52:47.624Z,9140.00
2023-04-13T07:53:47.604Z,9376.00
2023-04-13T07:54:47.568Z,9292.00
2023-04-13T07:55:47.537Z,9296.00
2023-04-13T07:56:47.508Z,9348.00
2023-04-13T07:57:47.477Z,9472.00
2023-04-13T07:58:47.452Z,9288.00
2023-04-13T07:59:47.423Z,9520.00
2023-04-13T08:00:47.389Z,9452.00
2023-04-13T08:01:47.432Z,9468.00
2023-04-13T08:02:47.533Z,9364.00
2023-04-13T08:03:47.519Z,9248.00
2023-04-13T08:04:47.414Z,9464.00
2023-04-13T08:05:47.465Z,9444.00
2023-04-13T08:06:47.253Z,9304.00
2023-04-13T08:07:47.190Z,9276.00
2023-04-13T08:08:47.162Z,9264.00
2023-04-13T08:09:47.130Z,9560.00
2023-04-13T08:10:47.103Z,9480.00
2023-04-13T08:11:47.073Z,9592.00
2023-04-13T08:12:47.045Z,9372.00
2023-04-13T08:13:47.014Z,9112.00
2023-04-13T08:14:46.985Z,8744.00
2023-04-13T08:15:46.958Z,8544.00
2023-04-13T08:16:47.004Z,8588.00
2023-04-13T08:17:46.958Z,8908.00
2023-04-13T08:18:46.878Z,9112.00
2023-04-13T08:19:46.845Z,9080.00
2023-04-13T08:20:46.818Z,8720.00
2023-04-13T08:21:46.802Z,8340.00
2023-04-13T08:22:46.783Z,8348.00
2023-04-13T08:23:46.741Z,8584.00
2023-04-13T08:24:46.704Z,8668.00
2023-04-13T08:25:46.675Z,8508.00
2023-04-13T08:26:46.647Z,8232.00
2023-04-13T08:27:46.620Z,7812.00
2023-04-13T08:28:46.590Z,7364.00
2023-04-13T08:29:46.557Z,6828.00
2023-04-13T08:30:46.530Z,6176.00
2023-04-13T08:31:46.516Z,5720.00
2023-04-13T08:32:46.540Z,5360.00
2023-04-13T08:33:46.464Z,4992.00
2023-04-13T08:34:46.419Z,4752.00
2023-04-13T08:35:46.397Z,4732.00
2023-04-13T08:36:46.368Z,4684.00
2023-04-13T08:37:46.343Z,4484.00
2023-04-13T08:38:46.322Z,4248.00
2023-04-13T08:39:46.367Z,3768.00
2023-04-13T08:40:46.611Z,3312.00
2023-04-13T08:41:46.213Z,3140.00
2023-04-13T08:42:46.187Z,3112.00
2023-04-13T08:43:46.163Z,3260.00
2023-04-13T08:44:46.126Z,3440.00
2023-04-13T08:45:46.114Z,3664.00
2023-04-13T08:46:46.130Z,3804.00
2023-04-13T08:47:46.128Z,3856.00
2023-04-13T08:48:59.075Z,3908.00
2023-04-13T08:49:45.982Z,3780.00
2023-04-13T08:50:45.955Z,3548.00
2023-04-13T08:51:45.954Z,3464.00
2023-04-13T08:52:45.898Z,3392.00
2023-04-13T08:53:45.862Z,3412.00
2023-04-13T08:54:45.888Z,3540.00
2023-04-13T08:55:45.837Z,3688.00
2023-04-13T08:56:46.987Z,3776.00
2023-04-13T08:57:45.748Z,3812.00
2023-04-13T08:58:45.717Z,3716.00
2023-04-13T08:59:45.689Z,3508.00
2023-04-13T09:00:45.660Z,3336.00
2023-04-13T09:01:45.747Z,3248.00
2023-04-13T09:03:00.407Z,3328.00
2023-04-13T09:03:45.681Z,3520.00
2023-04-13T09:04:45.648Z,4192.00
2023-04-13T09:05:45.514Z,5204.00
2023-04-13T09:06:45.483Z,6480.00
2023-04-13T09:07:45.462Z,7344.00
2023-04-13T09:08:45.441Z,7936.00
2023-04-13T09:09:45.404Z,8188.00
2023-04-13T09:10:45.385Z,8384.00
2023-04-13T09:11:45.337Z,8224.00
2023-04-13T09:12:45.308Z,7760.00
2023-04-13T09:13:45.279Z,7300.00
2023-04-13T09:14:45.248Z,7096.00
2023-04-13T09:15:45.221Z,7168.00
2023-04-13T09:16:45.220Z,7572.00
2023-04-13T09:17:45.178Z,8160.00
2023-04-13T09:18:45.132Z,8732.00
2023-04-13T09:19:45.104Z,9164.00
2023-04-13T09:20:45.078Z,9232.00
2023-04-13T09:21:45.231Z,9180.00
2023-04-13T09:22:45.018Z,8880.00
2023-04-13T09:23:44.991Z,8480.00
2023-04-13T09:24:44.979Z,8384.00
2023-04-13T09:25:44.933Z,8356.00
2023-04-13T09:26:44.985Z,8552.00
2023-04-13T09:27:44.889Z,8688.00
2023-04-13T09:28:44.845Z,9052.00
2023-04-13T09:29:44.818Z,9656.00
2023-04-13T09:30:44.829Z,9968.00
2023-04-13T09:31:45.855Z,10340.00
2023-04-13T09:32:44.782Z,10916.00
2023-04-13T09:33:44.708Z,11300.00
2023-04-13T09:34:44.674Z,10720.00
2023-04-13T09:35:44.647Z,10780.00
2023-04-13T09:36:54.028Z,10160.00
2023-04-13T09:37:44.612Z,9608.00
2023-04-13T09:38:44.561Z,9216.00
2023-04-13T09:39:44.537Z,9472.00
2023-04-13T09:40:44.503Z,9420.00
2023-04-13T09:41:44.476Z,9316.00
2023-04-13T09:42:44.467Z,9028.00
2023-04-13T09:43:44.420Z,8884.00
2023-04-13T09:44:44.392Z,8972.00
2023-04-13T09:45:44.458Z,8996.00
2023-04-13T09:46:44.364Z,9200.00
2023-04-13T09:47:44.357Z,9480.00
2023-04-13T09:48:44.284Z,9628.00
2023-04-13T09:49:44.248Z,9616.00
2023-04-13T09:50:44.224Z,9836.00
2023-04-13T09:51:44.232Z,10612.00
2023-04-13T09:52:44.167Z,11540.00
2023-04-13T09:53:44.133Z,12548.00
2023-04-13T09:54:44.107Z,13164.00
2023-04-13T09:55:44.077Z,13208.00
2023-04-13T09:56:44.050Z,13256.00
2023-04-13T09:57:44.020Z,13604.00
2023-04-13T09:58:44.019Z,13856.00
2023-04-13T09:59:43.966Z,14144.00
2023-04-13T10:00:43.933Z,14188.00
2023-04-13T10:01:44.140Z,13692.00
2023-04-13T10:02:44.088Z,13644.00
2023-04-13T10:03:43.911Z,13616.00
2023-04-13T10:04:43.873Z,13664.00
2023-04-13T10:06:43.770Z,13208.00
2023-04-13T10:07:43.736Z,12968.00
2023-04-13T10:08:43.712Z,13024.00
2023-04-13T10:09:43.680Z,13076.00
2023-04-13T10:10:43.658Z,13324.00
2023-04-13T10:11:43.625Z,13948.00
2023-04-13T10:12:43.602Z,14096.00
2023-04-13T10:13:43.571Z,14100.00
2023-04-13T10:14:43.572Z,13820.00
2023-04-13T10:15:43.537Z,13204.00
2023-04-13T10:16:43.552Z,13072.00
2023-04-13T10:17:43.552Z,13212.00
2023-04-13T10:18:43.451Z,13276.00
2023-04-13T10:19:43.495Z,13260.00
2023-04-13T10:20:43.378Z,13356.00
2023-04-13T10:21:43.350Z,13844.00
2023-04-13T10:22:43.324Z,13940.00
2023-04-13T10:23:43.300Z,13624.00
2023-04-13T10:24:43.277Z,13700.00
2023-04-13T10:25:43.244Z,13916.00
2023-04-13T10:26:43.322Z,14212.00
2023-04-13T10:27:43.192Z,13676.00
2023-04-13T10:28:43.170Z,13212.00
2023-04-13T10:29:43.136Z,12836.00
2023-04-13T10:30:43.133Z,12380.00
2023-04-13T10:31:43.137Z,12008.00
2023-04-13T10:32:43.108Z,12052.00
2023-04-13T10:33:44.012Z,11864.00
2023-04-13T10:34:43.004Z,11872.00
2023-04-13T10:35:43.717Z,11732.00
2023-04-13T10:36:43.009Z,11360.00
2023-04-13T10:37:42.948Z,11364.00
2023-04-13T10:38:42.901Z,11600.00
2023-04-13T10:39:42.879Z,11840.00
2023-04-13T10:40:42.853Z,12120.00
2023-04-13T10:41:42.823Z,12304.00
2023-04-13T10:42:51.860Z,12228.00
2023-04-13T10:43:42.768Z,11780.00
2023-04-13T10:44:42.765Z,11688.00
2023-04-13T10:45:42.717Z,11860.00
2023-04-13T10:46:42.720Z,11956.00
2023-04-13T10:47:42.707Z,12132.00
2023-04-13T10:48:42.636Z,12628.00
2023-04-13T10:49:42.611Z,13344.00
2023-04-13T10:50:42.584Z,13676.00
2023-04-13T10:51:42.571Z,13560.00
2023-04-13T10:52:42.531Z,13336.00
2023-04-13T10:53:42.508Z,13504.00
2023-04-13T10:54:42.479Z,13460.00
2023-04-13T10:55:42.452Z,13040.00
2023-04-13T10:56:42.428Z,12828.00
2023-04-13T10:57:42.396Z,12472.00
2023-04-13T10:58:42.369Z,11976.00
2023-04-13T10:59:55.533Z,11196.00
2023-04-13T11:00:46.210Z,9964.00
2023-04-13T11:01:42.314Z,8804.00
2023-04-13T11:02:42.401Z,8076.00
2023-04-13T11:03:53.191Z,7668.00
2023-04-13T11:04:42.304Z,7428.00
2023-04-13T11:05:42.186Z,7444.00
2023-04-13T11:06:42.157Z,7608.00
2023-04-13T11:07:42.138Z,7840.00
2023-04-13T11:09:42.078Z,8428.00
2023-04-13T11:10:42.054Z,8848.00
2023-04-13T11:11:42.034Z,9384.00
2023-04-13T11:12:42.001Z,10072.00
2023-04-13T11:13:41.970Z,10812.00
2023-04-13T11:14:41.944Z,11528.00
2023-04-13T11:15:41.921Z,12204.00
2023-04-13T11:16:41.916Z,13280.00
2023-04-13T11:17:41.865Z,14024.00
2023-04-13T11:18:41.856Z,14036.00
2023-04-13T11:19:41.813Z,14168.00
2023-04-13T11:20:41.809Z,14576.00
2023-04-13T11:21:41.753Z,15032.00
2023-04-13T11:22:47.404Z,14788.00
2023-04-13T11:23:41.700Z,15044.00
2023-04-13T11:24:41.673Z,15024.00
2023-04-13T11:25:41.646Z,13916.00
2023-04-13T11:26:42.978Z,13276.00
2023-04-13T11:27:41.595Z,12832.00
2023-04-13T11:28:41.567Z,12272.00
2023-04-13T11:29:41.538Z,11856.00
2023-04-13T11:30:41.519Z,11536.00
2023-04-13T11:31:41.594Z,11660.00
2023-04-13T11:32:41.594Z,12036.00
2023-04-13T11:33:41.430Z,12504.00
2023-04-13T11:34:41.427Z,12852.00
2023-04-13T11:35:41.375Z,13048.00
2023-04-13T11:36:41.349Z,13172.00
2023-04-13T11:37:41.325Z,13296.00
2023-04-13T11:38:41.292Z,13436.00
2023-04-13T11:39:41.268Z,13576.00
2023-04-13T11:40:41.250Z,13604.00
2023-04-13T11:41:41.290Z,13672.00
2023-04-13T11:42:41.188Z,13772.00
2023-04-13T11:43:41.156Z,13840.00
2023-04-13T11:44:41.131Z,13976.00
2023-04-13T11:45:41.101Z,14136.00
2023-04-13T11:46:41.163Z,14328.00
2023-04-13T11:47:41.066Z,14300.00
2023-04-13T11:48:41.032Z,14488.00
2023-04-13T11:49:40.993Z,15040.00
2023-04-13T11:50:40.985Z,15440.00
2023-04-13T11:51:40.936Z,15316.00
2023-04-13T11:52:40.918Z,14936.00
2023-04-13T11:53:40.909Z,14332.00
2023-04-13T11:54:40.860Z,13728.00
2023-04-13T11:56:40.813Z,12576.00
2023-04-13T11:57:40.779Z,11836.00
2023-04-13T11:58:40.755Z,11360.00
2023-04-13T11:59:40.728Z,11660.00
2023-04-13T12:00:40.703Z,12004.00
2023-04-13T12:01:49.311Z,12288.00
2023-04-13T12:02:57.545Z,11900.00
2023-04-13T12:03:53.476Z,11208.00
2023-04-13T12:04:40.777Z,10520.00
2023-04-13T12:05:41.028Z,10052.00
2023-04-13T12:06:40.773Z,9412.00
2023-04-13T12:07:40.909Z,8600.00
2023-04-13T12:08:41.030Z,7604.00
2023-04-13T12:09:55.384Z,6716.00
2023-04-13T12:10:49.312Z,6108.00
2023-04-13T12:11:42.825Z,5836.00
2023-04-13T12:13:46.915Z,5680.00
2023-04-13T12:14:57.603Z,5768.00
2023-04-13T12:15:49.600Z,5972.00
2023-04-13T12:17:43.951Z,6780.00
2023-04-13T12:18:40.732Z,7456.00
2023-04-13T12:19:40.919Z,8288.00
2023-04-13T12:20:40.335Z,9144.00
2023-04-13T12:21:40.304Z,10080.00
2023-04-13T12:22:50.890Z,10840.00
2023-04-13T12:23:40.124Z,11452.00
2023-04-13T12:24:40.287Z,11880.00
2023-04-13T12:25:41.937Z,12404.00
2023-04-13T12:27:39.971Z,13460.00
2023-04-13T12:28:39.939Z,13940.00
2023-04-13T12:29:39.911Z,14484.00
2023-04-13T12:30:39.884Z,14956.00
2023-04-13T12:31:40.002Z,15400.00
2023-04-13T12:32:39.955Z,15752.00
2023-04-13T12:33:39.812Z,16044.00
2023-04-13T12:34:39.775Z,15864.00